This is the latest recevied weather packets stored in our database for station/object SV4JYD-14. If no packets are shown the sender has not sent any weather packets the latest 10 day(s).
| Time | Temp. | Humidity | Pressure | Rain* | Wind** | Luminosity | Snow |
|---|---|---|---|---|---|---|---|
| 1777497723 | 15.56° C | 65% | 1016 hPa | 0 mm | - | - | - |
| 1777496823 | 15.56° C | 64% | 1016 hPa | 0 mm | - | - | - |
| 1777495922 | 15.56° C | 62% | 1016 hPa | 0 mm | - | - | - |
| 1777495022 | 15.56° C | 61% | 1016 hPa | 0 mm | - | - | - |
| 1777494122 | 16.11° C | 59% | 1016 hPa | 0 mm | - | - | - |
| 1777493222 | 16.11° C | 57% | 1016 hPa | 0 mm | - | - | - |
| 1777492321 | 16.11° C | 57% | 1016 hPa | 0 mm | - | - | - |
| 1777491421 | 16.67° C | 58% | 1016 hPa | 0 mm | - | - | - |
| 1777490521 | 16.67° C | 59% | 1016 hPa | 0 mm | - | - | - |
| 1777489621 | 16.67° C | 59% | 1016 hPa | 0 mm | - | - | - |
| 1777488720 | 17.22° C | 58% | 1016 hPa | 0 mm | - | - | - |
| 1777487820 | 17.22° C | 56% | 1016 hPa | 0 mm | - | - | - |
| 1777486920 | 17.22° C | 56% | 1016 hPa | 0 mm | - | - | - |
| 1777486020 | 17.78° C | 55% | 1016 hPa | 0 mm | - | - | - |
| 1777485119 | 18.33° C | 54% | 1016 hPa | 0 mm | - | - | - |
| 1777484222 | 18.89° C | 52% | 1016 hPa | 0 mm | - | - | - |
| 1777483319 | 19.44° C | 51% | 1015 hPa | 0 mm | - | - | - |
| 1777482418 | 20° C | 50% | 1015 hPa | 0 mm | - | - | - |
| 1777481518 | 20.56° C | 43% | 1015 hPa | 0 mm | - | - | - |
| 1777480618 | 20.56° C | 43% | 1015 hPa | 0 mm | - | - | - |
| 1777479718 | 22.22° C | 31% | 1015 hPa | 0 mm | - | - | - |
| 1777478817 | 22.22° C | 31% | 1016 hPa | 0 mm | - | - | - |
| 1777477917 | 22.22° C | 33% | 1015 hPa | 0 mm | - | - | - |
| 1777477017 | 22.22° C | 33% | 1015 hPa | 0 mm | - | - | - |
| 1777476117 | 21.11° C | 45% | 1015 hPa | 0 mm | - | - | - |
* Rain latest hour (hover to see other rain measurements)
** Current wind speed in m/s (hover to see current wind gust speed)